Time;durP1;ratioP1;P1;durP2;ratioP2;P2;SDS_P1;SDS_P2;PMS_P1;PMS_P2;Temp;Humidity;BMP_temperature;BMP_pressure;BME280_temperature;BME280_humidity;BME280_pressure;Samples;Min_cycle;Max_cycle;Signal;HPM_P1;HPM_P2
2024/04/15 00:01:06;;;;;;;4.07;2.50;;;;;;;14.43;100.00;95980.28;5431319;26;20234;-80
2024/04/15 00:03:31;;;;;;;4.30;2.88;;;;;;;14.44;100.00;95973.16;5432097;26;20275;-78
2024/04/15 00:06:00;;;;;;;2.97;2.13;;;;;;;14.41;100.00;95971.72;5431731;26;20230;-82
2024/04/15 00:08:25;;;;;;;7.05;3.15;;;;;;;14.32;100.00;95961.53;5430287;26;20525;-82
2024/04/15 00:10:54;;;;;;;4.40;2.50;;;;;;;14.36;100.00;95960.13;5431839;26;20353;-85
2024/04/15 00:13:19;;;;;;;4.73;2.77;;;;;;;14.32;100.00;95958.88;5433389;26;20765;-77
2024/04/15 00:15:56;;;;;;;5.70;2.63;;;;;;;14.60;100.00;95959.44;5432115;26;20241;-82
2024/04/15 00:18:24;;;;;;;3.70;2.30;;;;;;;14.61;100.00;95955.78;5432284;26;20296;-78
2024/04/15 00:20:59;;;;;;;4.25;2.50;;;;;;;14.58;100.00;95950.91;5431424;26;20770;-78
2024/04/15 00:23:25;;;;;;;3.77;2.53;;;;;;;14.16;100.00;95951.38;5431969;26;20555;-83
2024/04/15 00:25:56;;;;;;;4.53;3.00;;;;;;;14.46;100.00;95942.75;5431141;26;20242;-81
2024/04/15 00:28:21;;;;;;;5.90;2.67;;;;;;;14.12;100.00;95939.56;5431939;26;20646;-77
2024/04/15 00:30:50;;;;;;;4.37;2.80;;;;;;;14.06;100.00;95943.00;5430877;26;20237;-78
2024/04/15 00:33:15;;;;;;;5.05;2.78;;;;;;;14.09;100.00;95934.66;5430792;26;20313;-81
2024/04/15 00:35:47;;;;;;;4.25;2.58;;;;;;;14.28;100.00;95925.88;5432025;26;20253;-84
2024/04/15 00:38:13;;;;;;;7.50;2.67;;;;;;;14.10;100.00;95923.03;5432030;26;20574;-83
2024/04/15 00:40:41;;;;;;;4.75;3.03;;;;;;;13.99;100.00;95919.16;5431235;26;20245;-78
2024/04/15 00:43:07;;;;;;;5.07;2.95;;;;;;;14.02;100.00;95918.72;5429950;26;20294;-77
2024/04/15 00:45:36;;;;;;;4.55;2.45;;;;;;;14.14;100.00;95911.00;5430998;26;20673;-80
2024/04/15 00:48:03;;;;;;;5.10;3.07;;;;;;;14.00;100.00;95907.53;5431613;26;21185;-78
2024/04/15 00:50:33;;;;;;;5.47;3.10;;;;;;;14.17;100.00;95908.75;5431582;26;20728;-81
2024/04/15 00:53:03;;;;;;;3.90;2.40;;;;;;;14.35;100.00;95897.53;5430955;26;20299;-80
2024/04/15 00:55:34;;;;;;;3.70;2.47;;;;;;;14.36;100.00;95899.16;5433273;26;20234;-78
2024/04/15 00:58:01;;;;;;;4.40;2.60;;;;;;;14.26;100.00;95891.63;5433057;26;20226;-79
2024/04/15 01:00:30;;;;;;;4.67;3.20;;;;;;;14.08;100.00;95888.00;5432702;26;20245;-80
2024/04/15 01:02:56;;;;;;;4.40;2.60;;;;;;;14.24;100.00;95884.91;5430960;26;20282;-77
2024/04/15 01:05:25;;;;;;;4.50;3.13;;;;;;;14.27;100.00;95884.50;5431412;26;20359;-77
2024/04/15 01:07:51;;;;;;;4.03;2.83;;;;;;;14.29;100.00;95883.25;5432705;26;20285;-80
2024/04/15 01:10:22;;;;;;;4.63;2.60;;;;;;;14.43;100.00;95881.38;5432183;26;20234;-80
2024/04/15 01:12:47;;;;;;;3.42;2.50;;;;;;;14.09;100.00;95889.59;5430770;26;20649;-84
2024/04/15 01:15:16;;;;;;;4.20;2.70;;;;;;;14.31;100.00;95878.56;5430049;26;20241;-82
2024/04/15 01:17:42;;;;;;;3.65;2.38;;;;;;;14.26;100.00;95874.91;5430114;26;20294;-77
2024/04/15 01:20:11;;;;;;;4.70;2.92;;;;;;;14.06;100.00;95874.09;5429939;26;20226;-78
2024/04/15 01:22:38;;;;;;;4.63;2.73;;;;;;;14.24;100.00;95864.53;5430283;26;20264;-81
2024/04/15 01:25:09;;;;;;;5.35;3.10;;;;;;;14.38;100.00;95865.28;5430769;26;20333;-80
2024/04/15 01:27:34;;;;;;;6.77;3.37;;;;;;;14.28;100.00;95859.59;5430917;26;20827;-78
2024/04/15 01:30:03;;;;;;;5.60;3.03;;;;;;;14.25;100.00;95857.38;5430244;26;20238;-81
2024/04/15 01:32:28;;;;;;;4.65;2.72;;;;;;;14.18;100.00;95859.25;5429345;26;20281;-76
2024/04/15 01:34:56;;;;;;;6.35;3.45;;;;;;;14.22;100.00;95860.47;5430727;26;20330;-82
2024/04/15 01:37:22;;;;;;;4.30;2.47;;;;;;;14.22;100.00;95866.56;5429707;26;20317;-76
2024/04/15 01:39:50;;;;;;;7.28;3.40;;;;;;;14.04;100.00;95878.81;5430275;26;20237;-78
2024/04/15 01:42:18;;;;;;;5.30;2.77;;;;;;;13.77;100.00;95901.06;5426962;26;20601;-82
2024/04/15 01:44:46;;;;;;;5.18;2.83;;;;;;;13.66;100.00;95896.34;5430937;26;20630;-77
2024/04/15 01:47:12;;;;;;;5.13;3.10;;;;;;;13.80;100.00;95905.13;5430072;26;20637;-77
2024/04/15 01:49:40;;;;;;;4.17;2.70;;;;;;;13.82;100.00;95893.28;5429109;26;20299;-83
2024/04/15 01:52:06;;;;;;;4.30;3.13;;;;;;;13.95;100.00;95895.09;5429670;26;20293;-77
2024/04/15 01:54:34;;;;;;;4.93;3.17;;;;;;;13.89;100.00;95907.34;5430421;26;20338;-77
2024/04/15 01:57:00;;;;;;;8.30;3.23;;;;;;;14.12;100.00;95913.06;5429192;26;20298;-80
2024/04/15 01:59:31;;;;;;;5.45;3.42;;;;;;;14.29;100.00;95893.03;5430468;26;20241;-79
2024/04/15 02:01:56;;;;;;;6.00;2.95;;;;;;;14.17;100.00;95874.31;5428738;26;20367;-76
2024/04/15 02:04:24;;;;;;;9.27;3.73;;;;;;;14.34;100.00;95866.72;5431916;26;20700;-82
2024/04/15 02:06:50;;;;;;;4.97;3.10;;;;;;;14.02;100.00;95870.25;5430227;26;20237;-79
2024/04/15 02:09:18;;;;;;;4.90;2.92;;;;;;;14.28;100.00;95859.59;5430414;26;20268;-83
2024/04/15 02:11:44;;;;;;;5.28;2.92;;;;;;;14.40;100.00;95866.72;5429707;26;20578;-81
2024/04/15 02:14:12;;;;;;;5.93;3.13;;;;;;;14.53;100.00;95866.66;5431771;26;20576;-77
2024/04/15 02:16:40;;;;;;;5.82;2.80;;;;;;;14.72;100.00;95857.81;5429579;26;20692;-78
2024/04/15 02:19:08;;;;;;;6.73;3.40;;;;;;;14.59;100.00;95851.72;5430921;26;20517;-82
2024/04/15 02:21:34;;;;;;;3.63;2.37;;;;;;;14.48;100.00;95855.06;5428693;26;20885;-77
2024/04/15 02:24:02;;;;;;;4.28;2.72;;;;;;;14.57;100.00;95864.41;5430349;26;20694;-80
2024/04/15 02:26:28;;;;;;;4.40;2.40;;;;;;;14.58;100.00;95898.66;5429457;26;20272;-77
2024/04/15 02:28:56;;;;;;;4.60;2.72;;;;;;;14.64;100.00;95893.34;5430300;26;20770;-77
2024/04/15 02:31:21;;;;;;;5.38;2.92;;;;;;;14.59;100.00;95841.13;5434712;26;20614;-76
2024/04/15 02:33:53;;;;;;;5.97;2.70;;;;;;;14.88;100.00;95874.06;5449289;26;20260;-76
2024/04/15 02:36:18;;;;;;;6.10;2.90;;;;;;;14.77;100.00;95869.41;5436212;26;20249;-82
2024/04/15 02:38:49;;;;;;;8.05;3.30;;;;;;;14.81;100.00;95883.88;5436282;26;20226;-78
2024/04/15 02:41:14;;;;;;;6.05;3.22;;;;;;;14.97;100.00;95879.91;5435577;26;20276;-77
2024/04/15 02:43:42;;;;;;;6.20;3.10;;;;;;;15.01;100.00;95873.19;5434832;26;20718;-77
2024/04/15 02:46:08;;;;;;;4.32;2.75;;;;;;;15.01;100.00;95873.19;5431345;26;20681;-77
2024/04/15 02:48:37;;;;;;;4.80;2.92;;;;;;;14.97;100.00;95867.47;5431602;26;20716;-79
2024/04/15 02:51:05;;;;;;;7.53;3.20;;;;;;;15.10;100.00;95861.28;5432708;26;20233;-79
2024/04/15 02:53:34;;;;;;;4.45;2.85;;;;;;;14.92;100.00;95859.34;5433769;26;20241;-78
2024/04/15 02:55:59;;;;;;;4.82;2.88;;;;;;;14.92;100.00;95854.03;5437428;26;20601;-82
2024/04/15 02:58:27;;;;;;;4.28;2.83;;;;;;;14.94;100.00;95865.25;5439121;26;20222;-79
2024/04/15 03:00:53;;;;;;;8.05;3.50;;;;;;;14.93;100.00;95868.09;5437895;26;20340;-78
2024/04/15 03:03:21;;;;;;;4.18;2.80;;;;;;;14.97;100.00;95867.47;5439241;26;20233;-78
2024/04/15 03:05:47;;;;;;;6.15;3.33;;;;;;;14.91;100.00;95873.63;5438619;26;20333;-78
2024/04/15 03:08:17;;;;;;;4.60;3.08;;;;;;;15.04;100.00;95856.81;5441742;26;20234;-78
2024/04/15 03:10:45;;;;;;;4.88;2.90;;;;;;;14.88;100.00;95860.78;5440599;26;20866;-76
2024/04/15 03:13:11;;;;;;;4.35;2.65;;;;;;;14.91;100.00;95875.47;5441399;26;20387;-78
2024/04/15 03:15:39;;;;;;;7.22;3.20;;;;;;;14.95;100.00;95869.50;5444925;26;20233;-81
2024/04/15 03:18:05;;;;;;;7.10;2.55;;;;;;;14.91;100.00;95863.00;5444629;26;20281;-78
2024/04/15 03:20:33;;;;;;;3.47;2.20;;;;;;;14.73;100.00;95862.91;5442182;26;20574;-79
2024/04/15 03:22:58;;;;;;;3.90;2.65;;;;;;;14.75;100.00;95858.22;5444577;26;20290;-82
2024/04/15 03:25:29;;;;;;;5.90;3.10;;;;;;;14.83;100.00;95851.84;5444687;26;20679;-77
2024/04/15 03:27:55;;;;;;;6.53;3.20;;;;;;;14.65;100.00;95852.53;5445082;26;20281;-77
2024/04/15 03:30:23;;;;;;;3.97;2.72;;;;;;;14.64;100.00;95852.75;5438527;26;20346;-76
2024/04/15 03:32:48;;;;;;;5.30;3.00;;;;;;;14.69;100.00;95848.44;5442469;26;20270;-76
2024/04/15 03:35:17;;;;;;;4.80;2.80;;;;;;;14.79;100.00;95850.63;5444033;26;20230;-77
2024/04/15 03:37:45;;;;;;;5.28;2.80;;;;;;;14.80;100.00;95852.25;5443007;26;20789;-77
2024/04/15 03:40:11;;;;;;;4.03;2.33;;;;;;;14.72;100.00;95840.03;5439481;26;20936;-79
2024/04/15 03:42:41;;;;;;;6.35;3.00;;;;;;;14.88;100.00;95858.13;5441776;26;20330;-81
2024/04/15 03:45:07;;;;;;;6.20;2.63;;;;;;;14.70;100.00;95849.22;5439075;26;20301;-77
2024/04/15 03:47:35;;;;;;;4.85;2.88;;;;;;;14.60;100.00;95861.31;5440995;26;21042;-77
2024/04/15 03:50:01;;;;;;;5.40;3.00;;;;;;;14.79;100.00;95864.72;5442847;26;20226;-76
2024/04/15 03:52:30;;;;;;;9.55;3.22;;;;;;;14.82;100.00;95858.97;5442531;26;20268;-77
2024/04/15 03:54:56;;;;;;;4.38;2.65;;;;;;;14.85;100.00;95842.63;5441414;26;20222;-77
2024/04/15 03:57:24;;;;;;;6.78;2.65;;;;;;;14.98;100.00;95863.81;5442412;26;21003;-78
2024/04/15 03:59:52;;;;;;;4.93;2.53;;;;;;;15.15;100.00;95848.16;5441381;26;20222;-77
2024/04/15 04:02:21;;;;;;;4.85;2.78;;;;;;;15.02;100.00;95838.47;5441273;26;20289;-77
2024/04/15 04:04:47;;;;;;;5.97;3.10;;;;;;;15.08;100.00;95834.13;5440433;26;20297;-78
2024/04/15 04:07:15;;;;;;;6.53;3.58;;;;;;;15.10;100.00;95840.06;5440159;26;20333;-83
2024/04/15 04:09:41;;;;;;;5.47;3.15;;;;;;;15.09;100.00;95836.56;5442240;26;20242;-79
2024/04/15 04:12:09;;;;;;;6.38;2.90;;;;;;;15.12;100.00;95836.16;5440927;26;20326;-77
2024/04/15 04:14:35;;;;;;;4.07;2.45;;;;;;;15.16;100.00;95823.25;5443481;26;20359;-77
2024/04/15 04:17:06;;;;;;;4.63;2.70;;;;;;;15.28;100.00;95814.44;5443430;26;20276;-78
2024/04/15 04:19:32;;;;;;;5.80;2.80;;;;;;;15.16;100.00;95807.34;5445333;26;21061;-80
2024/04/15 04:22:00;;;;;;;10.48;4.22;;;;;;;15.22;100.00;95802.00;5444707;26;20241;-77
2024/04/15 04:24:25;;;;;;;14.93;5.40;;;;;;;15.22;100.00;95791.38;5445277;26;21149;-77
2024/04/15 04:26:53;;;;;;;12.40;5.35;;;;;;;15.22;100.00;95811.81;5443920;26;20313;-81
2024/04/15 04:29:19;;;;;;;8.13;4.00;;;;;;;15.18;100.00;95826.53;5443402;26;20329;-78
2024/04/15 04:31:47;;;;;;;13.63;4.25;;;;;;;15.15;100.00;95816.31;5440170;26;20249;-76
2024/04/15 04:34:15;;;;;;;10.18;3.70;;;;;;;15.25;100.00;95812.22;5444850;26;21429;-77
2024/04/15 04:36:43;;;;;;;9.80;3.72;;;;;;;15.09;100.00;95799.41;5442118;26;20273;-78
2024/04/15 04:39:10;;;;;;;9.90;3.90;;;;;;;15.14;100.00;95796.94;5440997;26;20225;-77
2024/04/15 04:41:38;;;;;;;8.13;3.50;;;;;;;15.18;100.00;95806.09;5438919;26;20660;-78
2024/04/15 04:44:04;;;;;;;5.07;2.78;;;;;;;15.21;100.00;95799.56;5442067;26;20354;-77
2024/04/15 04:46:32;;;;;;;3.85;2.50;;;;;;;15.16;100.00;95800.19;5442545;26;20237;-80
2024/04/15 04:48:58;;;;;;;3.72;2.60;;;;;;;15.18;100.00;95786.72;5441714;26;20798;-76
2024/04/15 04:51:29;;;;;;;6.25;2.30;;;;;;;15.27;100.00;95788.91;5441830;26;20245;-77
2024/04/15 04:53:54;;;;;;;6.18;2.25;;;;;;;15.17;100.00;95804.47;5444315;26;20768;-78
2024/04/15 04:56:23;;;;;;;4.15;2.50;;;;;;;15.17;100.00;95791.19;5442180;26;20315;-79
2024/04/15 04:58:48;;;;;;;4.53;2.50;;;;;;;15.25;100.00;95775.84;5442314;26;20309;-79
2024/04/15 05:01:18;;;;;;;5.60;2.70;;;;;;;15.31;100.00;95790.09;5439837;26;20748;-77
2024/04/15 05:03:45;;;;;;;3.88;2.42;;;;;;;15.33;100.00;95802.13;5439605;26;20376;-77
2024/04/15 05:06:15;;;;;;;4.95;2.70;;;;;;;15.33;100.00;95796.00;5440488;26;20272;-77
2024/04/15 05:08:44;;;;;;;8.15;2.95;;;;;;;15.22;100.00;95809.97;5439653;26;20320;-78
2024/04/15 05:11:12;;;;;;;10.05;4.40;;;;;;;15.19;100.00;95813.03;5438897;26;20375;-77
2024/04/15 05:13:37;;;;;;;5.53;2.95;;;;;;;15.23;100.00;95813.47;5438768;26;20234;-80
2024/04/15 05:16:07;;;;;;;6.60;3.15;;;;;;;14.85;100.00;95826.72;5441352;26;20321;-80
2024/04/15 05:18:33;;;;;;;10.32;4.10;;;;;;;15.08;100.00;95832.28;5436358;26;20256;-76
2024/04/15 05:21:02;;;;;;;4.38;2.47;;;;;;;15.22;100.00;95841.81;5439122;26;20813;-77
2024/04/15 05:23:28;;;;;;;5.90;3.00;;;;;;;15.30;100.00;95838.94;5436594;26;20297;-76
2024/04/15 05:26:00;;;;;;;5.43;2.33;;;;;;;15.26;100.00;95838.53;5438144;26;21141;-77
2024/04/15 05:28:26;;;;;;;7.82;4.22;;;;;;;15.24;100.00;95844.28;5434950;26;20360;-81
2024/04/15 05:30:56;;;;;;;6.22;2.72;;;;;;;15.45;100.00;95839.41;5436922;26;20246;-75
2024/04/15 05:33:21;;;;;;;8.10;2.55;;;;;;;15.37;100.00;95839.69;5435600;26;20284;-76
2024/04/15 05:35:50;;;;;;;6.75;2.58;;;;;;;15.30;100.00;95852.19;5436424;26;20824;-80
2024/04/15 05:38:16;;;;;;;12.40;3.63;;;;;;;15.45;100.00;95842.91;5435370;26;20696;-78
2024/04/15 05:40:45;;;;;;;3.67;1.95;;;;;;;15.47;100.00;95843.47;5435667;26;20285;-76
2024/04/15 05:43:14;;;;;;;9.50;3.03;;;;;;;15.57;100.00;95843.81;5436510;26;20858;-80
2024/04/15 05:45:43;;;;;;;8.57;2.25;;;;;;;15.48;100.00;95845.09;5437643;26;20367;-76
2024/04/15 05:48:09;;;;;;;5.28;2.38;;;;;;;15.47;100.00;95808.94;5439982;26;20732;-76
2024/04/15 05:50:38;;;;;;;6.18;2.70;;;;;;;15.59;100.00;95809.88;5437904;26;20227;-75
2024/04/15 05:53:03;;;;;;;9.20;2.50;;;;;;;15.26;100.00;95827.09;5433398;26;20581;-77
2024/04/15 05:55:32;;;;;;;6.93;2.08;;;;;;;15.45;100.00;95823.47;5436239;26;20330;-79
2024/04/15 05:57:57;;;;;;;6.97;2.90;;;;;;;15.44;100.00;95821.84;5430915;26;20300;-76
2024/04/15 06:00:28;;;;;;;8.15;3.03;;;;;;;15.57;100.00;95829.72;5433496;26;20806;-78
2024/04/15 06:02:53;;;;;;;11.02;2.50;;;;;;;15.39;100.00;95829.66;5431927;26;20282;-76
2024/04/15 06:05:24;;;;;;;9.45;3.00;;;;;;;15.41;100.00;95830.25;5432663;26;20337;-75
2024/04/15 06:07:49;;;;;;;4.07;2.65;;;;;;;15.46;100.00;95819.78;5429246;26;20285;-76
2024/04/15 06:10:17;;;;;;;5.38;2.28;;;;;;;15.47;100.00;95810.81;5428338;26;20242;-74
2024/04/15 06:12:43;;;;;;;4.82;2.50;;;;;;;15.52;100.00;95811.78;5427337;26;20233;-75
2024/04/15 06:15:11;;;;;;;4.00;2.53;;;;;;;15.37;100.00;95815.78;5427876;26;20289;-74
2024/04/15 06:17:39;;;;;;;5.25;2.38;;;;;;;15.63;100.00;95807.59;5428807;26;20346;-73
2024/04/15 06:20:09;;;;;;;7.18;2.70;;;;;;;15.71;100.00;95796.72;5426757;26;20612;-73
2024/04/15 06:22:35;;;;;;;5.75;2.90;;;;;;;15.71;100.00;95796.72;5424010;26;20229;-73
2024/04/15 06:25:04;;;;;;;4.47;2.63;;;;;;;15.63;100.00;95810.25;5426709;26;20345;-75
2024/04/15 06:27:30;;;;;;;17.55;2.80;;;;;;;15.80;100.00;95814.00;5426330;26;20226;-75
2024/04/15 06:29:58;;;;;;;5.05;2.40;;;;;;;15.85;100.00;95813.09;5425265;26;21140;-74
2024/04/15 06:32:23;;;;;;;4.50;2.10;;;;;;;15.97;100.00;95816.69;5425313;26;20297;-74
2024/04/15 06:34:54;;;;;;;3.35;2.67;;;;;;;16.06;100.00;95806.56;5425355;26;20334;-76
2024/04/15 06:37:20;;;;;;;4.72;2.38;;;;;;;15.92;100.00;95805.88;5419181;26;20346;-74
2024/04/15 06:39:49;;;;;;;3.53;1.90;;;;;;;16.03;100.00;95802.47;5421772;26;20921;-75
2024/04/15 06:42:15;;;;;;;3.17;1.88;;;;;;;16.10;100.00;95807.72;5421459;26;20292;-73
2024/04/15 06:44:43;;;;;;;5.22;1.90;;;;;;;15.94;100.00;95811.78;5421716;26;20230;-75
2024/04/15 06:47:09;;;;;;;7.13;2.78;;;;;;;15.87;100.00;95802.25;5427645;26;20237;-75
2024/04/15 06:49:37;;;;;;;4.35;2.17;;;;;;;15.93;100.00;95812.81;5426694;26;20683;-75
2024/04/15 06:52:06;;;;;;;10.68;2.40;;;;;;;16.10;100.00;95807.72;5426762;26;20241;-75
2024/04/15 06:54:36;;;;;;;4.25;2.15;;;;;;;15.91;100.00;95814.06;5426389;26;20272;-75
2024/04/15 06:57:02;;;;;;;4.28;2.33;;;;;;;15.79;100.00;95812.38;5426488;26;20315;-76
2024/04/15 06:59:30;;;;;;;3.78;2.35;;;;;;;15.86;100.00;95821.91;5421707;26;20933;-76
2024/04/15 07:01:56;;;;;;;5.82;2.50;;;;;;;15.73;100.00;95811.38;5422256;26;20354;-74
2024/04/15 07:04:24;;;;;;;3.53;2.28;;;;;;;15.78;100.00;95816.03;5421437;26;20266;-74
2024/04/15 07:06:50;;;;;;;5.20;2.00;;;;;;;15.74;100.00;95818.31;5425096;26;20333;-73
2024/04/15 07:09:21;;;;;;;6.13;2.95;;;;;;;15.78;100.00;95818.69;5426228;26;20241;-74
2024/04/15 07:13:37;;;;;;;5.38;2.25;;;;;;;15.90;100.00;95820.44;5485900;25;20541;-76
2024/04/15 07:16:03;;;;;;;4.43;2.10;;;;;;;15.76;100.00;95823.41;5484657;26;20327;-77
2024/04/15 07:18:32;;;;;;;3.90;2.30;;;;;;;15.74;100.00;95828.13;5483686;26;20336;-74
2024/04/15 07:20:57;;;;;;;4.55;2.65;;;;;;;15.74;100.00;95826.28;5482020;26;20232;-72
2024/04/15 07:23:25;;;;;;;2.97;2.30;;;;;;;15.76;100.00;95828.72;5480740;26;21618;-72
2024/04/15 07:25:55;;;;;;;10.23;2.72;;;;;;;15.84;100.00;95834.56;5482555;26;20232;-74
2024/04/15 07:28:23;;;;;;;3.75;2.30;;;;;;;15.69;100.00;95814.69;5482259;26;20267;-73
2024/04/15 07:30:57;;;;;;;5.38;2.38;;;;;;;15.98;100.00;95812.16;5480404;26;20342;-73
2024/04/15 07:33:25;;;;;;;5.45;2.47;;;;;;;15.86;100.00;95811.28;5481125;26;20267;-72
2024/04/15 07:35:54;;;;;;;3.22;2.15;;;;;;;16.13;100.00;95810.75;5481113;26;21112;-72
2024/04/15 07:38:22;;;;;;;4.53;2.47;;;;;;;15.97;100.00;95806.03;5482997;26;20228;-73
2024/04/15 07:40:48;;;;;;;5.47;2.78;;;;;;;15.93;100.00;95802.19;5482022;26;20641;-73
2024/04/15 07:43:16;;;;;;;3.53;1.95;;;;;;;15.89;100.00;95803.66;5479813;26;20220;-73
2024/04/15 07:45:43;;;;;;;7.43;2.60;;;;;;;15.80;100.00;95801.50;5480220;26;20229;-74
2024/04/15 07:48:15;;;;;;;4.45;2.65;;;;;;;15.79;100.00;95809.72;5482797;26;20275;-73
2024/04/15 07:50:41;;;;;;;3.70;1.98;;;;;;;15.82;100.00;95807.41;5479596;26;20228;-73
2024/04/15 07:53:12;;;;;;;3.75;2.00;;;;;;;16.01;100.00;95809.06;5480705;26;20702;-71
2024/04/15 07:55:43;;;;;;;4.35;2.67;;;;;;;15.99;100.00;95806.63;5479606;26;20237;-74
2024/04/15 07:58:11;;;;;;;3.33;2.40;;;;;;;15.90;100.00;95812.47;5480904;26;21085;-73
2024/04/15 08:00:37;;;;;;;3.80;2.35;;;;;;;16.06;100.00;95799.41;5480053;26;20280;-72
2024/04/15 08:03:05;;;;;;;4.63;2.85;;;;;;;16.19;100.00;95809.91;5478593;26;20225;-72
2024/04/15 08:05:34;;;;;;;4.63;2.63;;;;;;;16.37;100.00;95809.91;5478589;26;20362;-74
2024/04/15 08:08:02;;;;;;;5.68;2.80;;;;;;;16.23;100.00;95815.56;5480687;26;20225;-73
2024/04/15 08:10:28;;;;;;;5.78;2.88;;;;;;;16.15;100.00;95814.03;5481054;26;20240;-74
2024/04/15 08:12:56;;;;;;;3.65;2.63;;;;;;;15.88;100.00;95814.50;5478627;26;20236;-74
2024/04/15 08:15:21;;;;;;;5.75;2.60;;;;;;;15.65;100.00;95816.16;5480820;26;20345;-73
2024/04/15 08:17:50;;;;;;;5.85;2.35;;;;;;;15.76;100.00;95828.72;5479881;26;20819;-75
2024/04/15 08:20:15;;;;;;;2.92;1.83;;;;;;;15.38;100.00;95828.03;5479354;26;20331;-74
2024/04/15 08:22:50;;;;;;;3.75;1.52;;;;;;;15.59;100.00;95835.63;5478821;25;20746;-73
2024/04/15 08:25:16;;;;;;;2.25;1.27;;;;;;;15.44;100.00;95843.09;5464270;26;20250;-72
2024/04/15 08:27:44;;;;;;;1.90;1.10;;;;;;;15.35;100.00;95842.56;5464817;26;20280;-74
2024/04/15 08:30:10;;;;;;;3.65;1.77;;;;;;;15.37;100.00;95848.44;5464007;26;20330;-73
2024/04/15 08:32:38;;;;;;;2.03;1.25;;;;;;;14.96;100.00;95855.22;5462512;26;20284;-71
2024/04/15 08:35:05;;;;;;;2.42;1.30;;;;;;;14.89;100.00;95858.94;5466349;26;20753;-72
2024/04/15 08:37:33;;;;;;;1.10;0.80;;;;;;;14.78;100.00;95863.09;5464890;26;20229;-73
2024/04/15 08:40:04;;;;;;;3.60;1.02;;;;;;;14.92;100.00;95854.03;5465765;26;20225;-74
2024/04/15 08:42:38;;;;;;;6.07;1.35;;;;;;;14.73;100.00;95857.59;5465177;26;20229;-72
2024/04/15 08:45:07;;;;;;;1.65;0.90;;;;;;;14.69;100.00;95856.38;5466054;26;20243;-73
2024/04/15 08:47:37;;;;;;;3.42;1.00;;;;;;;14.69;100.00;95866.19;5464729;26;20224;-71
2024/04/15 08:50:04;;;;;;;2.80;1.10;;;;;;;14.57;100.00;95859.09;5466217;26;20280;-74
2024/04/15 08:52:33;;;;;;;1.80;1.00;;;;;;;14.73;100.00;95838.22;5464494;26;20309;-72
2024/04/15 08:55:03;;;;;;;2.67;0.88;;;;;;;14.79;100.00;95838.19;5466448;26;20394;-72
2024/04/15 08:57:34;;;;;;;1.58;0.75;;;;;;;14.83;100.00;95844.69;5466089;26;20730;-74
2024/04/15 09:00:01;;;;;;;2.13;1.13;;;;;;;14.51;100.00;95849.31;5466322;26;20233;-72
2024/04/15 09:02:31;;;;;;;4.82;1.00;;;;;;;14.57;100.00;95838.69;5463215;26;20228;-74
2024/04/15 09:04:57;;;;;;;2.70;1.30;;;;;;;14.34;100.00;95842.88;5466477;26;20320;-74
2024/04/15 09:07:26;;;;;;;2.10;1.30;;;;;;;14.48;100.00;95839.94;5457940;26;20229;-74
2024/04/15 09:09:52;;;;;;;1.92;1.40;;;;;;;14.45;100.00;95839.59;5463376;26;20240;-72
2024/04/15 09:12:22;;;;;;;2.30;1.33;;;;;;;14.51;100.00;95836.06;5463660;26;20282;-76
2024/04/15 09:14:48;;;;;;;3.35;1.02;;;;;;;14.50;100.00;95843.22;5465250;26;20345;-76
2024/04/15 09:17:16;;;;;;;3.13;1.90;;;;;;;14.44;100.00;95843.25;5465957;26;20727;-76
2024/04/15 09:19:44;;;;;;;1.67;1.20;;;;;;;14.63;100.00;95833.34;5465287;26;20277;-75
2024/04/15 09:22:14;;;;;;;2.88;1.63;;;;;;;14.73;100.00;95831.06;5464604;26;21140;-76
2024/04/15 09:24:39;;;;;;;2.58;1.30;;;;;;;14.80;100.00;95834.53;5464571;26;20339;-76
2024/04/15 09:27:07;;;;;;;1.95;1.20;;;;;;;15.01;100.00;95818.25;5466984;26;20233;-76
2024/04/15 09:29:36;;;;;;;3.05;1.55;;;;;;;15.14;100.00;95804.91;5457165;26;20336;-74
2024/04/15 09:32:06;;;;;;;4.85;2.00;;;;;;;15.06;100.00;95807.81;5462487;26;20291;-73
2024/04/15 09:34:31;;;;;;;2.08;1.25;;;;;;;14.80;100.00;95793.91;5461468;26;20229;-73
2024/04/15 09:37:01;;;;;;;5.47;1.23;;;;;;;14.82;100.00;95791.84;5461672;26;20329;-74
2024/04/15 09:39:27;;;;;;;4.47;1.98;;;;;;;14.79;100.00;95786.97;5462343;26;20795;-73
2024/04/15 09:41:57;;;;;;;2.80;1.30;;;;;;;14.75;100.00;95775.97;5463618;26;20278;-74
2024/04/15 09:44:24;;;;;;;2.47;1.38;;;;;;;14.92;100.00;95750.56;5463690;26;20221;-72
2024/04/15 09:46:56;;;;;;;3.95;1.23;;;;;;;15.25;100.00;95754.63;5464154;26;20229;-73
2024/04/15 09:49:24;;;;;;;1.52;1.38;;;;;;;15.15;100.00;95748.16;5463395;26;20317;-72
2024/04/15 09:51:54;;;;;;;3.70;1.20;;;;;;;15.18;100.00;95762.81;5460895;26;20765;-72
2024/04/15 09:54:30;;;;;;;2.22;1.10;;;;;;;15.33;100.00;95757.00;5462929;26;20229;-73
2024/04/15 09:57:06;;;;;;;2.67;1.40;;;;;;;15.37;100.00;95742.25;5462014;26;20233;-72
2024/04/15 09:59:37;;;;;;;5.43;1.52;;;;;;;14.98;100.00;95740.91;5460711;26;20244;-72
2024/04/15 10:02:24;;;;;;;3.78;1.48;;;;;;;15.71;100.00;95748.91;5461046;26;20237;-74
2024/04/15 10:04:52;;;;;;;2.60;1.67;;;;;;;15.50;100.00;95743.97;5459877;26;20263;-74
2024/04/15 10:07:22;;;;;;;3.85;1.48;;;;;;;15.70;100.00;95731.31;5463121;26;20669;-73
2024/04/15 10:09:48;;;;;;;2.20;1.63;;;;;;;15.59;100.00;95732.03;5464026;26;20316;-74
2024/04/15 10:12:17;;;;;;;3.78;1.65;;;;;;;15.76;100.00;95746.38;5461982;26;20225;-74
2024/04/15 10:14:44;;;;;;;2.45;1.52;;;;;;;15.89;100.00;95747.84;5462537;26;20668;-74
2024/04/15 10:17:14;;;;;;;1.63;1.23;;;;;;;15.72;100.00;95742.53;5462139;26;20232;-73
2024/04/15 10:19:40;;;;;;;2.72;1.60;;;;;;;15.50;100.00;95742.16;5462666;26;20295;-72
2024/04/15 10:22:10;;;;;;;2.88;1.38;;;;;;;15.70;100.00;95731.31;5462513;26;20336;-73
2024/04/15 10:24:38;;;;;;;5.47;1.60;;;;;;;15.99;100.00;95726.88;5462207;26;20237;-74
2024/04/15 10:27:08;;;;;;;4.00;1.40;;;;;;;16.09;100.00;95731.72;5461649;26;20240;-74
2024/04/15 10:29:37;;;;;;;3.50;1.30;;;;;;;16.48;100.00;95727.53;5461946;26;20726;-74
2024/04/15 10:32:09;;;;;;;1.90;1.13;;;;;;;16.21;100.00;95741.34;5460843;26;20233;-73
2024/04/15 10:34:42;;;;;;;2.78;1.50;;;;;;;16.03;100.00;95741.34;5461936;26;20473;-75
2024/04/15 10:37:14;;;;;;;3.63;2.03;;;;;;;16.48;100.00;95737.34;5461820;26;20264;-73
2024/04/15 10:39:45;;;;;;;3.00;1.65;;;;;;;16.33;100.00;95744.94;5462836;26;20217;-74
2024/04/15 10:42:13;;;;;;;3.13;1.70;;;;;;;16.46;100.00;95742.09;5460937;26;20225;-74
2024/04/15 10:44:38;;;;;;;3.40;1.50;;;;;;;16.28;100.00;95747.44;5460893;26;20280;-72
2024/04/15 10:47:08;;;;;;;1.77;1.20;;;;;;;16.35;100.00;95758.78;5461507;26;20328;-76
2024/04/15 10:49:35;;;;;;;4.47;1.60;;;;;;;15.86;100.00;95753.63;5460419;26;20237;-75
2024/04/15 10:52:06;;;;;;;2.20;1.10;;;;;;;16.02;100.00;95758.34;5460107;26;20305;-76
2024/04/15 10:54:32;;;;;;;3.45;2.53;;;;;;;15.81;100.00;95765.13;5461053;26;20228;-73
2024/04/15 10:57:01;;;;;;;2.00;1.30;;;;;;;15.90;100.00;95754.78;5462526;26;20663;-75
2024/04/15 10:59:28;;;;;;;3.00;1.70;;;;;;;16.30;100.00;95756.00;5462760;26;20267;-76
2024/04/15 11:01:56;;;;;;;2.78;1.33;;;;;;;16.04;100.00;95750.97;5462024;26;20340;-73
2024/04/15 11:04:22;;;;;;;2.33;1.35;;;;;;;16.07;100.00;95745.19;5462124;26;20655;-72
2024/04/15 11:06:50;;;;;;;3.35;1.80;;;;;;;15.99;100.00;95732.22;5462283;26;20237;-73
2024/04/15 11:09:20;;;;;;;3.53;1.60;;;;;;;16.69;100.00;95719.03;5463548;26;20312;-72
2024/04/15 11:11:48;;;;;;;4.75;1.52;;;;;;;16.69;100.00;95724.38;5458348;26;20288;-74
2024/04/15 11:14:14;;;;;;;2.78;1.63;;;;;;;16.21;100.00;95712.09;5463041;26;20256;-73
2024/04/15 11:16:46;;;;;;;2.35;1.50;;;;;;;16.44;100.00;95704.25;5463410;26;20327;-73
2024/04/15 11:19:12;;;;;;;6.80;2.13;;;;;;;15.75;100.00;95702.25;5463782;26;20236;-73
2024/04/15 11:21:40;;;;;;;3.33;1.67;;;;;;;15.71;100.00;95690.44;5461648;26;20237;-75
2024/04/15 11:24:07;;;;;;;3.05;1.98;;;;;;;15.56;100.00;95688.13;5463141;26;20268;-72
2024/04/15 11:26:39;;;;;;;5.70;2.67;;;;;;;15.79;100.00;95682.97;5463282;26;20224;-74
2024/04/15 11:29:06;;;;;;;2.60;1.52;;;;;;;15.83;100.00;95673.53;5462011;26;20236;-73